Time;durP1;ratioP1;P1;durP2;ratioP2;P2;SDS_P1;SDS_P2;PMS_P1;PMS_P2;Temp;Humidity;BMP_temperature;BMP_pressure;BME280_temperature;BME280_humidity;BME280_pressure;Samples;Min_cycle;Max_cycle;Signal;HPM_P1;HPM_P2
2023/12/08 00:00:52;;;;;;;44.20;39.50;;;11.70;99.90;;;;;;4987270;28;20057;-64
2023/12/08 00:03:17;;;;;;;44.20;39.28;;;12.10;99.90;;;;;;5005948;28;20099;-64
2023/12/08 00:05:43;;;;;;;41.38;35.13;;;11.80;99.90;;;;;;4997288;28;20047;-64
2023/12/08 00:08:09;;;;;;;40.40;36.13;;;12.00;96.10;;;;;;4993900;28;20049;-64
2023/12/08 00:10:34;;;;;;;43.20;38.47;;;11.60;63.60;;;;;;4986702;28;20475;-64
2023/12/08 00:13:00;;;;;;;43.22;38.55;;;11.60;44.90;;;;;;4986354;28;20115;-63
2023/12/08 00:15:25;;;;;;;42.78;37.42;;;11.70;3.30;;;;;;4993303;28;20073;-64
2023/12/08 00:17:51;;;;;;;38.22;34.28;;;11.80;1.00;;;;;;5003992;28;20105;-64
2023/12/08 00:20:16;;;;;;;39.72;34.47;;;12.00;1.00;;;;;;4994600;28;20419;-64
2023/12/08 00:22:42;;;;;;;42.08;37.13;;;11.80;1.00;;;;;;4986749;28;20047;-63
2023/12/08 00:25:08;;;;;;;41.20;37.10;;;11.80;1.00;;;;;;4986562;28;20053;-64
2023/12/08 00:27:33;;;;;;;41.15;36.92;;;11.60;99.90;;;;;;4987943;28;20041;-66
2023/12/08 00:29:59;;;;;;;41.40;37.15;;;11.90;99.90;;;;;;4994542;28;20111;-66
2023/12/08 00:32:25;;;;;;;41.30;36.85;;;12.00;99.90;;;;;;4994395;28;20046;-66
2023/12/08 00:34:50;;;;;;;54.85;36.95;;;11.50;99.90;;;;;;4986454;28;20045;-66
2023/12/08 00:37:16;;;;;;;39.92;35.63;;;11.60;99.90;;;;;;4990963;28;20183;-67
2023/12/08 00:39:42;;;;;;;38.70;34.65;;;12.00;99.90;;;;;;4988970;28;20488;-66
2023/12/08 00:42:07;;;;;;;38.47;34.53;;;11.60;99.90;;;;;;4991671;28;20042;-67
2023/12/08 00:44:33;;;;;;;41.60;37.10;;;11.50;99.90;;;;;;4986771;28;20042;-66
2023/12/08 00:46:58;;;;;;;38.53;34.33;;;11.50;99.90;;;;;;4985967;28;20034;-66
2023/12/08 00:49:24;;;;;;;40.28;36.08;;;11.80;99.90;;;;;;4989177;28;20038;-66
2023/12/08 00:51:49;;;;;;;40.92;36.78;;;11.60;99.90;;;;;;4985932;28;20050;-66
2023/12/08 00:54:15;;;;;;;38.95;35.08;;;11.50;99.90;;;;;;4999603;28;20099;-66
2023/12/08 00:56:41;;;;;;;36.58;32.97;;;12.00;99.90;;;;;;4998388;28;20118;-66
2023/12/08 00:59:06;;;;;;;38.38;34.33;;;11.60;98.50;;;;;;4993735;28;20045;-66
2023/12/08 01:01:32;;;;;;;38.00;34.33;;;12.00;62.20;;;;;;4997026;28;20090;-66
2023/12/08 01:03:57;;;;;;;37.97;34.05;;;11.80;44.70;;;;;;4987386;28;20042;-66
2023/12/08 01:06:23;;;;;;;37.72;33.72;;;12.00;91.10;;;;;;4988832;28;20477;-66
2023/12/08 01:08:49;;;;;;;39.28;35.08;;;12.00;55.00;;;;;;4992702;28;20093;-66
2023/12/08 01:11:14;;;;;;;37.95;34.15;;;11.90;23.00;;;;;;4999301;28;20141;-66
2023/12/08 01:13:40;;;;;;;36.60;32.90;;;11.60;14.10;;;;;;4990257;28;20061;-66
2023/12/08 01:16:06;;;;;;;40.70;36.70;;;11.50;2.60;;;;;;4989981;28;20129;-66
2023/12/08 01:18:33;;;;;;;86.75;38.95;;;11.60;1.00;;;;;;4998599;28;20100;-66
2023/12/08 01:20:58;;;;;;;42.78;38.10;;;12.00;62.20;;;;;;4989538;28;20503;-66
2023/12/08 01:23:24;;;;;;;41.47;37.20;;;11.90;70.50;;;;;;4989201;28;20429;-66
2023/12/08 01:25:49;;;;;;;39.38;35.60;;;11.50;89.10;;;;;;5003495;28;20088;-66
2023/12/08 01:28:15;;;;;;;42.97;38.72;;;11.60;76.80;;;;;;4978268;28;20054;-66
2023/12/08 01:30:41;;;;;;;41.88;37.65;;;11.50;90.40;;;;;;5008701;28;20044;-66
2023/12/08 01:33:06;;;;;;;41.20;37.00;;;11.60;81.00;;;;;;5003022;28;20538;-66
2023/12/08 01:35:32;;;;;;;42.97;38.58;;;11.50;74.50;;;;;;4999977;28;20089;-66
2023/12/08 01:37:59;;;;;;;40.70;36.72;;;11.50;80.10;;;;;;4989297;28;20065;-66
2023/12/08 01:40:25;;;;;;;37.95;34.33;;;11.90;36.10;;;;;;4992447;28;20440;-66
2023/12/08 01:42:51;;;;;;;42.33;37.85;;;11.90;15.10;;;;;;4989301;28;20038;-66
2023/12/08 01:45:16;;;;;;;37.20;33.53;;;11.90;10.30;;;;;;4994613;28;20037;-66
2023/12/08 01:47:43;;;;;;;39.60;35.60;;;11.90;1.00;;;;;;4995644;28;20457;-66
2023/12/08 01:50:10;;;;;;;39.63;35.83;;;11.60;1.00;;;;;;5002033;28;20095;-66
2023/12/08 01:52:36;;;;;;;38.10;34.33;;;11.60;1.00;;;;;;5010430;28;20065;-66
2023/12/08 01:55:02;;;;;;;36.90;33.35;;;11.40;1.00;;;;;;4993443;28;20439;-66
2023/12/08 01:57:28;;;;;;;40.47;36.28;;;11.60;1.00;;;;;;5008238;28;20046;-67
2023/12/08 01:59:55;;;;;;;41.88;37.35;;;11.60;1.00;;;;;;5001473;28;20562;-66
2023/12/08 02:02:21;;;;;;;36.45;32.55;;;12.00;1.00;;;;;;4988652;28;20140;-66
2023/12/08 02:04:49;;;;;;;40.42;36.22;;;11.80;1.00;;;;;;4989099;28;20482;-66
2023/12/08 02:07:15;;;;;;;42.80;38.22;;;11.90;1.00;;;;;;4988993;28;20038;-67
2023/12/08 02:09:41;;;;;;;40.10;36.10;;;12.00;1.00;;;;;;4997241;28;20151;-66
2023/12/08 02:12:09;;;;;;;39.50;35.38;;;11.60;1.00;;;;;;4992294;28;20100;-66
2023/12/08 02:14:34;;;;;;;41.40;37.10;;;11.60;1.00;;;;;;4988474;28;20051;-66
2023/12/08 02:17:08;;;;;;;38.95;35.10;;;11.90;1.00;;;;;;4988692;28;20505;-66
2023/12/08 02:19:34;;;;;;;40.70;34.35;;;11.50;1.00;;;;;;5001759;28;20069;-66
2023/12/08 02:22:00;;;;;;;43.63;38.25;;;11.60;1.00;;;;;;4991502;28;20076;-66
2023/12/08 02:24:25;;;;;;;39.60;35.58;;;11.60;1.00;;;;;;4995668;28;20077;-66
2023/12/08 02:26:51;;;;;;;41.38;37.28;;;12.00;1.00;;;;;;4988054;28;20539;-66
2023/12/08 02:29:17;;;;;;;42.90;38.55;;;11.90;1.00;;;;;;4988363;28;20038;-65
2023/12/08 02:31:59;;;;;;;41.53;37.28;;;12.20;1.00;;;;;;5002458;28;20060;-66
2023/12/08 02:34:26;;;;;;;44.35;39.95;;;12.00;1.00;;;;;;4984474;28;20045;-66
2023/12/08 02:36:54;;;;;;;75.80;36.45;;;12.10;1.00;;;;;;4991496;28;20113;-66
2023/12/08 02:39:20;;;;;;;41.92;37.83;;;11.90;1.00;;;;;;4995220;28;20488;-66
2023/12/08 02:41:46;;;;;;;40.60;36.45;;;11.80;1.00;;;;;;5007610;28;20053;-66
2023/12/08 02:44:12;;;;;;;41.67;37.35;;;12.00;1.00;;;;;;5007498;28;20440;-66
2023/12/08 02:46:37;;;;;;;42.65;38.25;;;11.70;1.00;;;;;;4996013;28;20416;-66
2023/12/08 02:49:03;;;;;;;40.75;36.47;;;12.00;1.00;;;;;;4992816;28;20385;-66
2023/12/08 02:51:29;;;;;;;41.70;37.38;;;11.50;1.00;;;;;;4992439;28;20389;-66
2023/12/08 02:53:55;;;;;;;44.28;39.60;;;11.50;1.00;;;;;;4987805;28;20057;-66
2023/12/08 02:56:20;;;;;;;41.35;37.08;;;11.70;1.00;;;;;;4992925;28;20679;-66
2023/12/08 02:58:46;;;;;;;42.38;37.95;;;11.90;1.00;;;;;;4987396;28;20046;-66
2023/12/08 03:01:11;;;;;;;42.58;38.28;;;11.90;1.00;;;;;;4986627;28;20077;-66
2023/12/08 03:03:37;;;;;;;42.85;38.45;;;11.90;1.00;;;;;;5000840;28;20045;-66
2023/12/08 03:06:02;;;;;;;44.38;39.85;;;12.00;1.00;;;;;;4989861;28;20132;-66
2023/12/08 03:08:28;;;;;;;41.88;37.67;;;11.60;1.00;;;;;;4987387;28;20180;-66
2023/12/08 03:10:54;;;;;;;43.05;38.30;;;12.00;1.00;;;;;;5002882;28;20069;-66
2023/12/08 03:13:19;;;;;;;43.95;39.33;;;11.60;1.00;;;;;;4987411;28;20046;-66
2023/12/08 03:15:45;;;;;;;47.67;41.83;;;11.70;1.00;;;;;;4986790;28;20045;-66
2023/12/08 03:18:11;;;;;;;40.30;36.40;;;11.60;1.00;;;;;;5004851;28;20054;-66
2023/12/08 03:20:36;;;;;;;41.95;37.75;;;12.10;1.00;;;;;;4990164;28;20057;-66
2023/12/08 03:23:02;;;;;;;43.28;38.58;;;11.90;1.00;;;;;;5004260;28;20120;-67
2023/12/08 03:25:27;;;;;;;42.58;38.17;;;11.80;1.00;;;;;;4987096;28;20419;-66
2023/12/08 03:27:53;;;;;;;43.58;39.35;;;11.80;1.00;;;;;;4986279;28;20424;-67
2023/12/08 03:30:18;;;;;;;41.67;37.40;;;12.00;1.00;;;;;;4988103;28;20049;-66
2023/12/08 03:32:44;;;;;;;47.78;43.03;;;11.70;1.00;;;;;;4986482;28;20042;-66
2023/12/08 03:35:09;;;;;;;48.65;43.35;;;11.60;1.00;;;;;;4987609;28;20046;-66
2023/12/08 03:37:35;;;;;;;53.08;47.83;;;12.10;1.00;;;;;;4990830;28;20038;-66
2023/12/08 03:40:01;;;;;;;52.88;47.67;;;11.50;23.30;;;;;;4994171;28;20045;-66
2023/12/08 03:42:27;;;;;;;52.50;47.30;;;11.60;53.80;;;;;;5006381;28;20092;-66
2023/12/08 03:44:52;;;;;;;51.95;46.58;;;11.50;93.00;;;;;;4998325;28;20084;-66
2023/12/08 03:47:18;;;;;;;54.33;48.58;;;11.90;99.30;;;;;;4991659;28;20500;-66
2023/12/08 03:49:44;;;;;;;55.15;49.45;;;11.80;99.90;;;;;;4996192;28;20041;-67
2023/12/08 03:52:10;;;;;;;55.05;49.15;;;11.70;99.90;;;;;;5003542;28;20484;-66
2023/12/08 03:54:35;;;;;;;48.30;43.80;;;11.50;99.90;;;;;;4986566;28;20093;-66
2023/12/08 03:57:01;;;;;;;53.17;47.95;;;11.60;99.90;;;;;;4986407;28;20045;-64
2023/12/08 03:59:26;;;;;;;53.28;47.63;;;11.70;99.90;;;;;;4988527;28;20117;-64
2023/12/08 04:01:52;;;;;;;55.88;49.97;;;11.90;99.90;;;;;;4988724;28;20087;-64
2023/12/08 04:04:18;;;;;;;57.40;51.50;;;11.50;99.90;;;;;;4989696;28;20038;-65
2023/12/08 04:06:44;;;;;;;59.35;53.42;;;11.90;99.90;;;;;;4996013;28;20046;-64
2023/12/08 04:09:09;;;;;;;59.53;53.28;;;11.90;99.90;;;;;;5006030;28;20050;-65
2023/12/08 04:11:35;;;;;;;59.70;53.35;;;11.60;99.90;;;;;;4990840;28;20142;-65
2023/12/08 04:14:00;;;;;;;62.17;54.78;;;11.80;99.90;;;;;;4986607;28;20035;-65
2023/12/08 04:16:26;;;;;;;55.63;49.38;;;11.40;1.00;;;;;;5000131;28;20066;-65
2023/12/08 04:18:51;;;;;;;56.97;47.75;;;11.90;1.00;;;;;;4993035;28;20046;-65
2023/12/08 04:21:18;;;;;;;53.97;48.20;;;11.90;1.00;;;;;;5002171;28;20141;-64
2023/12/08 04:23:44;;;;;;;57.90;47.28;;;11.30;1.00;;;;;;4999938;28;20034;-65
2023/12/08 04:26:09;;;;;;;54.78;46.55;;;11.30;31.50;;;;;;4990035;28;20537;-64
2023/12/08 04:28:35;;;;;;;56.90;47.15;;;11.40;99.90;;;;;;4986895;28;20093;-64
2023/12/08 04:31:00;;;;;;;59.70;47.50;;;11.30;99.90;;;;;;4996711;28;20042;-64
2023/12/08 04:33:26;;;;;;;282.10;57.80;;;11.30;99.90;;;;;;4986867;28;20041;-64
2023/12/08 04:35:51;;;;;;;54.15;48.35;;;12.00;1.00;;;;;;4998588;28;20467;-64
2023/12/08 04:38:17;;;;;;;60.88;50.58;;;11.80;1.00;;;;;;4985590;28;20088;-65
2023/12/08 04:40:42;;;;;;;54.00;48.42;;;11.80;1.00;;;;;;4990801;28;20045;-64
2023/12/08 04:43:08;;;;;;;57.47;51.42;;;11.70;1.00;;;;;;4988634;28;20049;-64
2023/12/08 04:45:34;;;;;;;57.42;50.40;;;11.10;65.00;;;;;;4990804;28;20045;-64
2023/12/08 04:47:59;;;;;;;57.42;51.25;;;11.40;99.90;;;;;;4990262;28;20084;-65
2023/12/08 04:50:25;;;;;;;60.58;53.90;;;11.30;99.90;;;;;;4990292;28;20112;-65
2023/12/08 04:52:50;;;;;;;58.55;51.75;;;11.40;99.90;;;;;;4989825;28;20046;-64
2023/12/08 04:55:16;;;;;;;54.95;46.67;;;11.50;99.90;;;;;;4990027;28;20047;-65
2023/12/08 04:57:41;;;;;;;59.92;48.45;;;11.60;99.90;;;;;;4989518;28;20038;-65
2023/12/08 05:00:07;;;;;;;58.55;47.38;;;11.60;1.00;;;;;;4993893;28;20050;-64
2023/12/08 05:02:33;;;;;;;63.08;50.15;;;11.60;1.00;;;;;;4989923;28;20439;-64
2023/12/08 05:04:58;;;;;;;61.22;51.17;;;10.90;1.00;;;;;;5006606;28;20050;-63
2023/12/08 05:07:25;;;;;;;62.15;50.97;;;11.00;3.60;;;;;;4991946;28;20046;-66
2023/12/08 05:09:51;;;;;;;63.55;49.97;;;11.20;79.30;;;;;;5006066;28;20125;-66
2023/12/08 05:12:17;;;;;;;61.95;51.72;;;11.50;99.90;;;;;;4989173;28;20046;-66
2023/12/08 05:14:42;;;;;;;86.20;49.95;;;10.90;99.90;;;;;;4992315;28;20543;-66
2023/12/08 05:17:08;;;;;;;61.95;53.85;;;11.50;99.90;;;;;;4991290;28;20046;-66
2023/12/08 05:19:33;;;;;;;60.33;53.63;;;11.50;99.90;;;;;;4990804;28;20050;-67
2023/12/08 05:21:59;;;;;;;61.70;53.72;;;10.90;1.00;;;;;;4998063;28;20045;-67
2023/12/08 05:24:24;;;;;;;54.97;49.08;;;11.00;1.00;;;;;;4989438;28;20042;-67
2023/12/08 05:26:50;;;;;;;52.13;46.80;;;11.40;1.00;;;;;;4984775;28;20116;-66
2023/12/08 05:29:15;;;;;;;65.20;54.35;;;11.30;55.60;;;;;;5004249;28;20050;-66
2023/12/08 05:31:41;;;;;;;59.53;51.22;;;10.90;99.90;;;;;;5006832;28;20406;-67
2023/12/08 05:34:07;;;;;;;59.38;49.70;;;11.30;99.90;;;;;;5008983;28;20055;-67
2023/12/08 05:36:32;;;;;;;65.25;50.00;;;11.40;99.90;;;;;;4997868;28;20046;-67
2023/12/08 05:38:58;;;;;;;65.93;50.78;;;10.70;1.00;;;;;;4989232;28;20050;-66
2023/12/08 05:41:23;;;;;;;70.97;53.33;;;11.20;41.80;;;;;;4989006;28;20039;-66
2023/12/08 05:43:49;;;;;;;68.80;51.30;;;11.30;99.90;;;;;;4989120;28;20591;-66
2023/12/08 05:46:14;;;;;;;75.65;52.97;;;11.10;99.90;;;;;;4989294;28;20386;-66
2023/12/08 05:48:40;;;;;;;67.35;51.22;;;11.40;99.90;;;;;;4989174;28;20039;-66
2023/12/08 05:51:06;;;;;;;66.90;52.60;;;11.30;1.00;;;;;;4988969;28;20117;-66
2023/12/08 05:53:31;;;;;;;67.68;49.70;;;10.80;1.00;;;;;;4994871;28;20487;-66
2023/12/08 05:55:57;;;;;;;65.82;51.03;;;10.70;55.00;;;;;;5001436;28;20038;-66
2023/12/08 05:58:25;;;;;;;81.00;52.15;;;10.80;99.90;;;;;;4992259;28;20488;-67
2023/12/08 06:00:51;;;;;;;65.15;55.33;;;11.60;99.90;;;;;;5005658;28;20515;-66
2023/12/08 06:03:17;;;;;;;69.00;56.70;;;11.40;99.90;;;;;;4988955;28;20074;-67
2023/12/08 06:05:42;;;;;;;74.18;55.85;;;10.90;1.00;;;;;;4996857;28;20080;-66
2023/12/08 06:08:08;;;;;;;70.40;54.92;;;11.40;1.00;;;;;;4988948;28;20520;-66
2023/12/08 06:10:34;;;;;;;66.63;56.42;;;11.40;1.00;;;;;;5000379;28;20431;-66
2023/12/08 06:12:59;;;;;;;88.38;55.80;;;10.70;93.80;;;;;;5003651;28;20041;-67
2023/12/08 06:15:25;;;;;;;69.20;55.45;;;10.70;99.90;;;;;;4999387;28;20125;-67
2023/12/08 06:17:50;;;;;;;67.35;51.35;;;11.00;99.90;;;;;;4988213;28;20057;-65
2023/12/08 06:20:16;;;;;;;71.60;52.63;;;11.40;99.90;;;;;;4990866;28;20092;-65
2023/12/08 06:22:43;;;;;;;75.45;52.42;;;11.10;1.00;;;;;;4988423;28;20042;-65
2023/12/08 06:25:08;;;;;;;69.00;52.20;;;11.10;1.00;;;;;;4991768;28;20050;-64
2023/12/08 06:27:35;;;;;;;74.40;54.42;;;11.00;22.40;;;;;;4988844;28;20424;-64
2023/12/08 06:30:01;;;;;;;76.65;52.47;;;10.80;99.90;;;;;;4988431;28;20125;-63
2023/12/08 06:32:30;;;;;;;77.25;55.70;;;11.40;99.90;;;;;;4982646;28;20121;-65
2023/12/08 06:34:55;;;;;;;67.32;51.72;;;11.30;99.90;;;;;;4984927;28;20042;-64
2023/12/08 06:37:21;;;;;;;74.60;53.17;;;11.20;99.90;;;;;;4993097;28;20065;-64
2023/12/08 06:39:47;;;;;;;74.60;56.95;;;11.60;1.00;;;;;;4987231;28;20049;-64
2023/12/08 06:42:12;;;;;;;150.02;54.15;;;11.50;1.00;;;;;;4987474;28;20050;-64
2023/12/08 06:44:38;;;;;;;70.15;55.10;;;12.10;99.90;;;;;;4993907;28;20041;-64
2023/12/08 06:47:04;;;;;;;66.95;55.97;;;11.60;99.90;;;;;;5004567;28;20045;-64
2023/12/08 06:49:30;;;;;;;68.72;57.00;;;11.50;99.90;;;;;;4998060;28;20038;-64
2023/12/08 06:51:56;;;;;;;72.40;59.30;;;11.30;99.90;;;;;;4989850;28;20572;-65
2023/12/08 06:54:21;;;;;;;75.53;59.55;;;11.50;1.00;;;;;;4994104;28;20099;-65
2023/12/08 06:56:47;;;;;;;75.00;59.65;;;11.70;1.00;;;;;;5002970;28;20407;-64
2023/12/08 06:59:12;;;;;;;69.63;58.75;;;12.80;1.00;;;;;;5002675;28;20049;-64
2023/12/08 07:01:38;;;;;;;73.57;59.05;;;11.50;33.60;;;;;;4989826;28;20061;-64
2023/12/08 07:04:04;;;;;;;70.70;57.60;;;10.90;92.90;;;;;;4983381;28;20065;-64
2023/12/08 07:06:30;;;;;;;72.88;58.15;;;11.00;99.90;;;;;;4993733;28;20590;-65
2023/12/08 07:08:56;;;;;;;71.72;56.00;;;11.40;99.90;;;;;;4991548;28;20049;-65
2023/12/08 07:11:22;;;;;;;72.97;55.88;;;11.50;99.90;;;;;;4980610;28;20042;-64
2023/12/08 07:13:49;;;;;;;67.20;52.40;;;12.10;99.90;;;;;;4985183;28;20056;-65
2023/12/08 07:16:15;;;;;;;67.07;51.95;;;11.10;99.90;;;;;;4983015;28;20050;-64
2023/12/08 07:18:41;;;;;;;70.72;55.67;;;11.60;99.90;;;;;;4981989;28;20528;-65
2023/12/08 07:21:06;;;;;;;71.88;53.88;;;11.10;99.90;;;;;;4979612;28;20433;-64
2023/12/08 07:23:33;;;;;;;70.47;54.88;;;11.60;99.90;;;;;;4981449;28;20046;-64
2023/12/08 07:25:59;;;;;;;72.78;56.88;;;11.10;99.90;;;;;;4984644;28;20072;-65
2023/12/08 07:28:25;;;;;;;85.82;57.70;;;11.60;99.90;;;;;;4985136;28;20108;-64
2023/12/08 07:30:50;;;;;;;72.60;54.42;;;11.60;99.90;;;;;;4984426;28;20042;-65
2023/12/08 07:33:16;;;;;;;66.60;56.35;;;10.90;99.90;;;;;;5002479;28;20386;-65
2023/12/08 07:35:41;;;;;;;76.57;57.22;;;11.60;99.90;;;;;;4985884;28;20046;-64
2023/12/08 07:38:07;;;;;;;70.80;55.80;;;10.90;99.90;;;;;;4984395;28;20064;-64
2023/12/08 07:40:33;;;;;;;74.75;58.53;;;11.50;99.90;;;;;;4988351;28;20046;-65
2023/12/08 07:42:59;;;;;;;74.88;60.03;;;11.60;99.90;;;;;;4986201;28;20080;-65
2023/12/08 07:45:25;;;;;;;73.70;59.15;;;11.00;99.90;;;;;;4985790;28;20046;-64
2023/12/08 07:47:51;;;;;;;71.28;55.90;;;10.90;99.90;;;;;;4984208;28;20050;-64
2023/12/08 07:50:16;;;;;;;70.53;57.42;;;11.30;99.90;;;;;;4981841;28;20046;-65
2023/12/08 07:52:42;;;;;;;71.20;55.67;;;10.90;99.90;;;;;;4983774;28;20046;-65
2023/12/08 07:55:10;;;;;;;75.20;56.67;;;11.70;99.90;;;;;;4980743;28;20049;-64
2023/12/08 07:57:36;;;;;;;72.93;57.30;;;11.60;99.90;;;;;;4983901;28;20393;-64
2023/12/08 08:00:06;;;;;;;74.63;56.67;;;10.90;99.90;;;;;;4982425;28;20092;-64
2023/12/08 08:02:32;;;;;;;72.65;60.83;;;10.90;99.90;;;;;;4981916;28;20125;-64
2023/12/08 08:04:58;;;;;;;69.30;58.25;;;11.10;99.90;;;;;;4986558;28;20042;-64
2023/12/08 08:07:24;;;;;;;72.32;58.45;;;11.40;99.90;;;;;;4984916;28;20046;-65
2023/12/08 08:09:50;;;;;;;69.60;54.28;;;10.90;99.90;;;;;;4981370;28;20050;-65
2023/12/08 08:12:15;;;;;;;64.82;54.63;;;11.60;99.90;;;;;;4981299;28;20415;-65
2023/12/08 08:14:42;;;;;;;71.63;59.33;;;11.10;99.90;;;;;;4986537;28;20141;-65
2023/12/08 08:17:07;;;;;;;74.57;60.85;;;11.60;99.90;;;;;;4988078;28;20045;-65
2023/12/08 08:19:33;;;;;;;72.70;56.60;;;11.10;99.90;;;;;;4988631;28;20128;-64
2023/12/08 08:21:59;;;;;;;72.28;54.00;;;11.50;99.90;;;;;;4985019;28;20041;-65
2023/12/08 08:24:24;;;;;;;72.93;53.22;;;10.80;99.90;;;;;;4982938;28;20042;-65
2023/12/08 08:26:50;;;;;;;75.07;53.58;;;10.90;99.90;;;;;;4982638;28;20050;-64
2023/12/08 08:29:15;;;;;;;74.22;54.45;;;11.50;99.90;;;;;;4984616;28;20857;-64
2023/12/08 08:31:41;;;;;;;68.88;53.83;;;11.20;99.90;;;;;;4989980;28;20447;-64
2023/12/08 08:34:07;;;;;;;69.95;55.30;;;10.70;99.90;;;;;;4985505;28;20541;-64
2023/12/08 08:36:32;;;;;;;66.57;49.80;;;11.10;99.90;;;;;;4985779;28;20034;-65
2023/12/08 08:38:58;;;;;;;75.00;54.47;;;11.40;99.90;;;;;;4984670;28;20057;-68
2023/12/08 08:41:24;;;;;;;75.50;57.65;;;11.40;99.90;;;;;;4984555;28;20073;-68
2023/12/08 08:43:50;;;;;;;75.75;57.10;;;10.80;99.90;;;;;;4982369;28;20038;-69
2023/12/08 08:46:16;;;;;;;81.03;58.53;;;11.50;99.90;;;;;;4985340;28;20121;-69
2023/12/08 08:48:42;;;;;;;80.82;58.08;;;11.40;99.90;;;;;;4983558;28;20057;-68
2023/12/08 08:51:08;;;;;;;84.85;60.92;;;10.90;99.90;;;;;;4982978;28;20619;-69
2023/12/08 08:53:34;;;;;;;72.47;57.08;;;11.60;99.90;;;;;;4992436;28;20042;-68
2023/12/08 08:56:01;;;;;;;75.53;55.72;;;11.40;99.90;;;;;;4978487;28;20037;-67
2023/12/08 08:58:26;;;;;;;78.00;55.13;;;11.80;99.90;;;;;;4985079;28;20408;-69
2023/12/08 09:00:52;;;;;;;80.65;56.53;;;10.90;99.90;;;;;;4982282;28;20062;-68
2023/12/08 09:03:17;;;;;;;77.05;56.58;;;11.70;99.90;;;;;;4979497;28;20100;-68
2023/12/08 09:05:43;;;;;;;70.18;54.85;;;11.10;99.90;;;;;;4979978;28;20048;-65
2023/12/08 09:08:10;;;;;;;70.70;54.42;;;10.90;99.90;;;;;;4980065;28;20046;-65
2023/12/08 09:10:35;;;;;;;80.35;58.13;;;11.30;99.90;;;;;;4976354;28;20042;-64
2023/12/08 09:13:01;;;;;;;75.22;56.00;;;12.20;99.90;;;;;;4981056;28;20057;-65
2023/12/08 09:15:27;;;;;;;72.55;54.78;;;11.00;99.90;;;;;;4979455;28;20049;-63
2023/12/08 09:17:53;;;;;;;75.20;53.30;;;11.80;99.90;;;;;;4977788;28;20053;-65
2023/12/08 09:20:19;;;;;;;82.13;55.78;;;11.10;99.90;;;;;;4982655;28;20050;-64
2023/12/08 09:22:45;;;;;;;75.45;54.70;;;11.80;99.90;;;;;;4980013;28;20832;-66
2023/12/08 09:25:11;;;;;;;78.57;53.53;;;11.80;99.90;;;;;;4996633;28;20042;-64
2023/12/08 09:27:36;;;;;;;77.97;56.15;;;11.60;99.90;;;;;;4978371;28;20386;-66
2023/12/08 09:30:03;;;;;;;74.10;54.80;;;11.70;99.90;;;;;;4981059;28;20070;-66
2023/12/08 09:32:29;;;;;;;77.32;55.63;;;11.40;99.90;;;;;;4983376;28;20181;-66
2023/12/08 09:34:54;;;;;;;78.30;54.95;;;11.60;99.90;;;;;;4983295;28;21025;-65
2023/12/08 09:37:20;;;;;;;77.28;54.60;;;11.60;99.90;;;;;;4986101;28;20618;-64
2023/12/08 09:39:45;;;;;;;75.38;53.45;;;11.30;99.90;;;;;;4986499;28;20779;-65
2023/12/08 09:42:20;;;;;;;75.95;56.00;;;11.30;99.90;;;;;;4985901;28;20873;-65
2023/12/08 09:44:48;;;;;;;75.68;52.50;;;11.50;99.90;;;;;;4986013;28;20504;-65
2023/12/08 09:47:17;;;;;;;81.72;55.70;;;11.50;99.90;;;;;;4984286;28;20141;-65
2023/12/08 09:49:46;;;;;;;60.70;47.00;;;12.10;99.90;;;;;;4986362;28;20128;-65
2023/12/08 09:52:14;;;;;;;69.55;51.60;;;12.00;99.90;;;;;;4986079;28;20121;-65
2023/12/08 09:54:41;;;;;;;80.28;58.42;;;11.40;99.90;;;;;;4985644;28;20041;-67
2023/12/08 09:57:09;;;;;;;77.13;54.05;;;11.40;99.90;;;;;;4982946;28;20041;-65
2023/12/08 09:59:37;;;;;;;76.82;56.67;;;11.50;99.90;;;;;;4984930;28;20065;-67
2023/12/08 10:02:03;;;;;;;75.25;55.25;;;12.20;99.90;;;;;;4982778;28;20282;-65
2023/12/08 10:04:29;;;;;;;74.38;54.25;;;12.20;99.90;;;;;;4986037;28;20180;-65
2023/12/08 10:06:59;;;;;;;249.68;61.78;;;12.20;99.90;;;;;;4999771;28;20038;-65
2023/12/08 10:09:26;;;;;;;81.22;57.42;;;12.20;99.90;;;;;;4985582;28;20047;-65
2023/12/08 10:11:51;;;;;;;74.18;54.95;;;11.50;99.90;;;;;;4984768;28;20054;-64
2023/12/08 10:14:18;;;;;;;80.20;58.28;;;11.60;99.90;;;;;;4983331;28;20046;-66
2023/12/08 10:16:45;;;;;;;75.55;55.13;;;12.20;99.90;;;;;;4982271;28;20788;-65
2023/12/08 10:19:11;;;;;;;80.32;56.17;;;12.00;99.90;;;;;;4982141;28;20046;-69
2023/12/08 10:21:36;;;;;;;71.25;52.92;;;11.70;99.90;;;;;;4985632;28;20546;-69
2023/12/08 10:24:03;;;;;;;78.93;56.45;;;11.60;99.90;;;;;;4986154;28;20682;-69
2023/12/08 10:26:30;;;;;;;74.40;52.03;;;12.10;99.90;;;;;;4984504;28;20042;-69
2023/12/08 10:28:56;;;;;;;83.00;56.67;;;11.50;99.90;;;;;;4985039;28;20129;-69
2023/12/08 10:31:22;;;;;;;82.60;58.92;;;11.90;99.90;;;;;;5000999;28;20042;-68
2023/12/08 10:33:51;;;;;;;74.45;53.80;;;12.20;99.90;;;;;;4984177;28;20468;-67
2023/12/08 10:36:18;;;;;;;68.97;55.05;;;11.80;99.90;;;;;;4983427;28;20631;-70
2023/12/08 10:38:44;;;;;;;81.90;57.58;;;11.50;99.90;;;;;;4985874;28;20496;-69
2023/12/08 10:41:10;;;;;;;73.30;55.22;;;12.30;99.90;;;;;;4984839;28;20061;-68
2023/12/08 10:43:39;;;;;;;93.10;63.05;;;12.10;99.90;;;;;;4984276;28;20117;-69
2023/12/08 10:46:06;;;;;;;86.18;58.13;;;12.30;99.90;;;;;;4984013;28;20163;-68
2023/12/08 10:48:33;;;;;;;103.50;61.20;;;12.40;99.90;;;;;;4984252;28;20042;-68
2023/12/08 10:50:59;;;;;;;101.32;63.33;;;12.80;99.90;;;;;;4981951;28;20128;-69
2023/12/08 10:53:25;;;;;;;89.70;57.65;;;11.70;99.90;;;;;;4983597;28;20092;-69
2023/12/08 10:56:03;;;;;;;442.38;80.43;;;12.20;99.90;;;;;;4985461;28;20054;-69
2023/12/08 10:58:32;;;;;;;91.05;62.72;;;11.90;99.90;;;;;;4986153;28;20092;-68
2023/12/08 11:01:01;;;;;;;104.60;62.55;;;11.90;99.90;;;;;;4981264;28;21324;-67
2023/12/08 11:03:34;;;;;;;92.35;60.00;;;12.10;99.90;;;;;;4983040;28;20077;-68
2023/12/08 11:06:12;;;;;;;88.30;59.78;;;11.70;99.90;;;;;;4981736;28;20724;-70
2023/12/08 11:08:44;;;;;;;97.25;60.28;;;12.60;99.90;;;;;;4983602;28;20101;-68
2023/12/08 11:11:11;;;;;;;103.90;61.15;;;12.60;99.90;;;;;;4984202;28;20184;-68
2023/12/08 11:13:40;;;;;;;99.05;59.63;;;12.40;99.90;;;;;;4979730;28;20127;-66
2023/12/08 11:16:32;;;;;;;110.90;59.72;;;12.30;99.90;;;;;;4980864;28;20145;-69
2023/12/08 11:18:59;;;;;;;102.80;61.65;;;12.20;99.90;;;;;;4980357;28;20481;-67
2023/12/08 11:21:26;;;;;;;93.93;58.13;;;12.80;99.90;;;;;;4981380;28;20041;-69
2023/12/08 11:23:52;;;;;;;90.43;55.08;;;11.70;99.90;;;;;;4984373;28;20669;-68
2023/12/08 11:26:18;;;;;;;101.95;60.67;;;12.00;99.90;;;;;;4984441;28;20412;-67
2023/12/08 11:28:46;;;;;;;91.70;58.78;;;12.50;99.90;;;;;;4985761;28;20049;-67
2023/12/08 11:31:21;;;;;;;91.10;55.75;;;12.60;99.90;;;;;;4984240;28;20050;-67
2023/12/08 11:34:00;;;;;;;102.47;63.60;;;12.60;99.90;;;;;;4984914;28;20069;-67
2023/12/08 11:36:28;;;;;;;122.65;60.78;;;11.90;99.90;;;;;;4982375;28;20034;-68
2023/12/08 11:38:55;;;;;;;103.07;59.90;;;11.90;99.90;;;;;;4983784;28;20046;-67
2023/12/08 11:41:22;;;;;;;108.80;63.15;;;12.20;99.90;;;;;;4983808;28;20050;-67
2023/12/08 11:43:48;;;;;;;112.38;55.15;;;12.30;99.90;;;;;;4984421;28;20823;-67
2023/12/08 11:46:14;;;;;;;110.65;59.00;;;12.60;99.90;;;;;;4984982;28;20038;-67
2023/12/08 11:48:41;;;;;;;117.82;60.83;;;12.00;99.90;;;;;;4986462;28;20046;-67
2023/12/08 11:51:10;;;;;;;127.88;61.05;;;12.60;99.90;;;;;;4984318;28;20042;-67
2023/12/08 11:53:55;;;;;;;124.30;60.85;;;12.90;99.90;;;;;;4984599;28;20034;-67
2023/12/08 11:56:39;;;;;;;115.13;57.95;;;12.60;99.90;;;;;;4984391;28;20052;-67
2023/12/08 11:59:05;;;;;;;114.85;58.42;;;12.40;99.90;;;;;;4977670;28;20054;-67
2023/12/08 12:01:30;;;;;;;110.20;61.05;;;12.40;99.90;;;;;;4976705;28;20081;-67
2023/12/08 12:03:56;;;;;;;83.50;56.08;;;13.50;99.90;;;;;;4978452;28;20495;-67
2023/12/08 12:06:23;;;;;;;112.68;58.90;;;12.00;99.90;;;;;;4980558;28;20882;-67
2023/12/08 12:08:50;;;;;;;128.23;61.35;;;12.30;99.90;;;;;;4978101;28;20524;-67
2023/12/08 12:11:20;;;;;;;142.48;63.72;;;12.80;99.90;;;;;;4981644;28;20146;-68
2023/12/08 12:13:46;;;;;;;139.57;59.95;;;12.70;99.90;;;;;;4983370;28;20104;-67
2023/12/08 12:16:11;;;;;;;122.95;60.42;;;12.80;99.90;;;;;;4983469;28;20042;-67
2023/12/08 12:18:38;;;;;;;132.60;59.05;;;12.80;99.90;;;;;;4983678;28;20049;-67
2023/12/08 12:21:03;;;;;;;100.82;56.58;;;12.40;99.90;;;;;;4982397;28;20046;-67
2023/12/08 12:23:29;;;;;;;118.82;59.10;;;12.20;99.90;;;;;;4982500;28;20137;-68